Wetterdaten: Woche 24.08.26 - 30.08.26 (KW35)
Datum Zeit Temp. I. Temp. A. Feuchte I. Feuchte A. Luftdruck Regen Wind Richtung Sonnenschein Solar Taupunkt Windchill Windböen
24.08.2026 00:00 21,8 °C 9,9 °C 55 % 88 % 1022,5 hPa 0,0 l/m² 0,0 km/h (0 Bft) W-SW 0,00 h 0 W/m² 8,1 °C 9,9 °C 0,0 km/h (0 Bft)
24.08.2026 01:00 21,8 °C 8,9 °C 56 % 91 % 1022,8 hPa 0,0 l/m² 0,0 km/h (0 Bft) W-SW 0,00 h 0 W/m² 7,5 °C 8,9 °C 0,0 km/h (0 Bft)
24.08.2026 02:00 21,7 °C 8,3 °C 56 % 92 % 1022,8 hPa 0,0 l/m² 0,0 km/h (0 Bft) W-SW 0,00 h 0 W/m² 7,0 °C 8,3 °C 0,1 km/h (0 Bft)
24.08.2026 03:00 21,7 °C 7,6 °C 56 % 93 % 1022,8 hPa 0,0 l/m² 0,0 km/h (0 Bft) W-SW 0,00 h 0 W/m² 6,5 °C 7,6 °C 0,0 km/h (0 Bft)
24.08.2026 04:00 21,6 °C 7,4 °C 55 % 93 % 1023,0 hPa 0,0 l/m² 0,0 km/h (0 Bft) W-SW 0,00 h 0 W/m² 6,3 °C 7,4 °C 0,0 km/h (0 Bft)
24.08.2026 05:00 21,6 °C 6,9 °C 56 % 94 % 1023,1 hPa 0,0 l/m² 0,0 km/h (0 Bft) W-SW 0,00 h 0 W/m² 6,0 °C 6,9 °C 0,0 km/h (0 Bft)
24.08.2026 06:00 21,5 °C 7,2 °C 55 % 94 % 1023,2 hPa 0,0 l/m² 0,0 km/h (0 Bft) W-SW 0,00 h 13 W/m² 6,3 °C 7,2 °C 0,0 km/h (0 Bft)
24.08.2026 07:00 21,4 °C 9,1 °C 54 % 95 % 1023,3 hPa 0,0 l/m² 0,3 km/h (0 Bft) W-SW 0,63 h 88 W/m² 8,2 °C 9,1 °C 0,6 km/h (0 Bft)
24.08.2026 08:00 21,4 °C 13,0 °C 54 % 89 % 1023,4 hPa 0,0 l/m² 1,8 km/h (1 Bft) SW 1,00 h 299 W/m² 11,2 °C 13,0 °C 4,3 km/h (1 Bft)
24.08.2026 09:00 21,6 °C 16,4 °C 54 % 75 % 1023,4 hPa 0,0 l/m² 3,1 km/h (1 Bft) W 0,98 h 431 W/m² 12,0 °C 16,4 °C 7,5 km/h (2 Bft)
24.08.2026 10:00 21,5 °C 16,9 °C 54 % 67 % 1023,5 hPa 0,0 l/m² 2,9 km/h (1 Bft) W 1,00 h 200 W/m² 10,7 °C 16,9 °C 6,4 km/h (2 Bft)
24.08.2026 11:00 21,4 °C 17,7 °C 55 % 66 % 1023,3 hPa 0,0 l/m² 3,7 km/h (1 Bft) NO 1,02 h 380 W/m² 11,2 °C 17,7 °C 7,7 km/h (2 Bft)
24.08.2026 12:00 21,4 °C 17,7 °C 55 % 65 % 1023,1 hPa 0,0 l/m² 2,7 km/h (1 Bft) W 1,00 h 246 W/m² 11,1 °C 17,7 °C 5,0 km/h (1 Bft)
24.08.2026 13:00 21,4 °C 18,5 °C 55 % 63 % 1023,1 hPa 0,0 l/m² 3,5 km/h (1 Bft) O 1,00 h 345 W/m² 11,3 °C 18,5 °C 5,4 km/h (2 Bft)
24.08.2026 14:00 21,4 °C 19,2 °C 55 % 61 % 1022,9 hPa 0,0 l/m² 3,0 km/h (1 Bft) O 1,00 h 431 W/m² 11,4 °C 19,2 °C 5,1 km/h (1 Bft)
24.08.2026 15:00 21,4 °C 20,5 °C 55 % 58 % 1022,4 hPa 0,0 l/m² 3,8 km/h (1 Bft) O-NO 1,00 h 654 W/m² 11,8 °C 20,5 °C 6,9 km/h (2 Bft)
24.08.2026 16:00 21,5 °C 21,2 °C 55 % 55 % 1021,7 hPa 0,0 l/m² 4,8 km/h (1 Bft) O 1,00 h 566 W/m² 11,8 °C 21,0 °C 8,1 km/h (2 Bft)
24.08.2026 17:00 21,5 °C 20,7 °C 53 % 56 % 1021,2 hPa 0,0 l/m² 6,0 km/h (2 Bft) O 1,00 h 195 W/m² 11,7 °C 20,4 °C 10,1 km/h (2 Bft)
24.08.2026 18:00 21,6 °C 19,7 °C 54 % 58 % 1020,5 hPa 0,0 l/m² 7,0 km/h (2 Bft) O 1,00 h 86 W/m² 11,3 °C 19,2 °C 11,2 km/h (2 Bft)
24.08.2026 19:00 21,7 °C 18,5 °C 55 % 63 % 1019,9 hPa 0,0 l/m² 3,9 km/h (1 Bft) O-NO 0,02 h 34 W/m² 11,2 °C 18,4 °C 7,3 km/h (2 Bft)
24.08.2026 20:00 21,7 °C 15,2 °C 54 % 77 % 1019,8 hPa 0,0 l/m² 0,3 km/h (0 Bft) N 0,00 h 7 W/m² 11,1 °C 15,2 °C 0,7 km/h (0 Bft)
24.08.2026 21:00 21,6 °C 12,5 °C 55 % 87 % 1019,7 hPa 0,0 l/m² 0,0 km/h (0 Bft) O-NO 0,00 h 0 W/m² 10,4 °C 12,5 °C 0,0 km/h (0 Bft)
24.08.2026 22:00 21,6 °C 11,0 °C 55 % 91 % 1019,7 hPa 0,0 l/m² 0,0 km/h (0 Bft) O-NO 0,00 h 0 W/m² 9,7 °C 11,0 °C 0,0 km/h (0 Bft)
24.08.2026 23:00 21,5 °C 10,3 °C 55 % 93 % 1019,7 hPa 0,0 l/m² 0,0 km/h (0 Bft) O-NO 0,00 h 0 W/m² 9,1 °C 10,3 °C 0,0 km/h (0 Bft)
25.08.2026 00:00 21,4 °C 9,7 °C 55 % 93 % 1019,4 hPa 0,0 l/m² 0,0 km/h (0 Bft) O-NO 0,00 h 0 W/m² 8,6 °C 9,7 °C 0,0 km/h (0 Bft)
25.08.2026 01:00 21,4 °C 9,3 °C 55 % 94 % 1018,5 hPa 0,0 l/m² 0,0 km/h (0 Bft) O-NO 0,00 h 0 W/m² 8,4 °C 9,3 °C 0,0 km/h (0 Bft)
25.08.2026 02:00 21,4 °C 9,1 °C 55 % 94 % 1017,9 hPa 0,0 l/m² 0,3 km/h (0 Bft) O-NO 0,00 h 0 W/m² 8,2 °C 9,1 °C 1,2 km/h (1 Bft)
25.08.2026 03:00 21,4 °C 10,2 °C 55 % 94 % 1017,6 hPa 0,0 l/m² 1,9 km/h (1 Bft) O 0,00 h 0 W/m² 9,3 °C 10,2 °C 4,1 km/h (1 Bft)
25.08.2026 04:00 21,3 °C 10,3 °C 55 % 93 % 1017,2 hPa 0,0 l/m² 0,4 km/h (0 Bft) O 0,00 h 0 W/m² 9,2 °C 10,3 °C 0,8 km/h (0 Bft)
25.08.2026 05:00 21,3 °C 10,8 °C 55 % 93 % 1016,8 hPa 0,0 l/m² 2,2 km/h (1 Bft) NO 0,00 h 0 W/m² 9,8 °C 10,8 °C 4,8 km/h (1 Bft)
25.08.2026 06:00 21,3 °C 11,9 °C 55 % 91 % 1016,7 hPa 0,0 l/m² 3,9 km/h (1 Bft) O-NO 0,00 h 14 W/m² 10,5 °C 11,9 °C 8,2 km/h (2 Bft)
25.08.2026 07:00 21,2 °C 13,6 °C 55 % 87 % 1016,5 hPa 0,0 l/m² 5,5 km/h (2 Bft) O-NO 0,58 h 89 W/m² 11,5 °C 13,4 °C 10,4 km/h (2 Bft)
25.08.2026 08:00 21,3 °C 16,3 °C 55 % 79 % 1016,6 hPa 0,0 l/m² 9,6 km/h (2 Bft) O-NO 1,00 h 305 W/m² 12,7 °C 14,8 °C 16,0 km/h (3 Bft)
25.08.2026 09:00 21,4 °C 19,1 °C 55 % 69 % 1016,4 hPa 0,0 l/m² 15,0 km/h (3 Bft) O 1,00 h 480 W/m² 13,2 °C 16,3 °C 22,7 km/h (4 Bft)
25.08.2026 10:00 21,4 °C 20,2 °C 55 % 64 % 1016,4 hPa 0,0 l/m² 16,5 km/h (3 Bft) O-NO 1,00 h 522 W/m² 13,0 °C 17,2 °C 25,1 km/h (4 Bft)
25.08.2026 11:00 21,5 °C 22,2 °C 54 % 57 % 1016,2 hPa 0,0 l/m² 15,7 km/h (3 Bft) O 1,00 h 696 W/m² 13,3 °C 19,8 °C 23,8 km/h (4 Bft)
25.08.2026 12:00 21,4 °C 23,4 °C 54 % 52 % 1015,9 hPa 0,0 l/m² 14,7 km/h (3 Bft) NO 1,00 h 760 W/m² 13,0 °C 21,5 °C 22,1 km/h (4 Bft)
25.08.2026 13:00 21,4 °C 23,9 °C 54 % 50 % 1015,6 hPa 0,0 l/m² 14,9 km/h (3 Bft) O 1,00 h 610 W/m² 12,8 °C 22,1 °C 21,9 km/h (4 Bft)
25.08.2026 14:00 21,4 °C 25,1 °C 54 % 46 % 1015,3 hPa 0,0 l/m² 16,6 km/h (3 Bft) O 1,00 h 753 W/m² 12,6 °C 23,3 °C 24,3 km/h (4 Bft)
25.08.2026 15:00 21,4 °C 25,7 °C 54 % 44 % 1015,1 hPa 0,0 l/m² 16,7 km/h (3 Bft) O 1,00 h 667 W/m² 12,5 °C 24,0 °C 23,9 km/h (4 Bft)
25.08.2026 16:00 21,5 °C 25,7 °C 55 % 44 % 1015,2 hPa 0,0 l/m² 12,6 km/h (3 Bft) O-NO 1,00 h 526 W/m² 12,6 °C 24,6 °C 19,4 km/h (3 Bft)
25.08.2026 17:00 21,6 °C 24,7 °C 55 % 46 % 1015,2 hPa 0,0 l/m² 14,1 km/h (3 Bft) NO 1,00 h 196 W/m² 12,2 °C 23,1 °C 21,7 km/h (4 Bft)
25.08.2026 18:00 21,6 °C 23,7 °C 54 % 48 % 1015,3 hPa 0,0 l/m² 11,2 km/h (2 Bft) O 1,00 h 89 W/m² 12,2 °C 22,6 °C 17,1 km/h (3 Bft)
25.08.2026 19:00 21,7 °C 22,5 °C 55 % 52 % 1015,5 hPa 0,0 l/m² 6,8 km/h (2 Bft) O-NO 0,03 h 23 W/m² 12,2 °C 22,3 °C 12,6 km/h (3 Bft)
25.08.2026 20:00 21,7 °C 21,3 °C 55 % 54 % 1015,9 hPa 0,0 l/m² 6,1 km/h (2 Bft) NO 0,00 h 5 W/m² 11,7 °C 21,2 °C 10,5 km/h (2 Bft)
25.08.2026 21:00 21,8 °C 20,1 °C 56 % 58 % 1016,4 hPa 0,0 l/m² 5,0 km/h (1 Bft) O 0,00 h 0 W/m² 11,6 °C 20,1 °C 8,4 km/h (2 Bft)
25.08.2026 22:00 21,9 °C 19,5 °C 55 % 61 % 1016,8 hPa 0,0 l/m² 7,0 km/h (2 Bft) O 0,00 h 0 W/m² 11,7 °C 19,0 °C 11,9 km/h (2 Bft)
25.08.2026 23:00 21,7 °C 18,7 °C 56 % 64 % 1017,1 hPa 0,0 l/m² 4,1 km/h (1 Bft) O-NO 0,00 h 0 W/m² 11,7 °C 18,7 °C 7,5 km/h (2 Bft)
26.08.2026 00:00 21,7 °C 18,1 °C 56 % 65 % 1017,4 hPa 0,0 l/m² 4,4 km/h (1 Bft) O-NO 0,00 h 0 W/m² 11,5 °C 18,0 °C 8,0 km/h (2 Bft)
26.08.2026 01:00 21,6 °C 17,6 °C 55 % 67 % 1017,5 hPa 0,0 l/m² 4,8 km/h (1 Bft) O 0,00 h 0 W/m² 11,4 °C 17,5 °C 8,7 km/h (2 Bft)
26.08.2026 02:00 21,7 °C 16,8 °C 55 % 72 % 1017,4 hPa 0,0 l/m² 5,2 km/h (1 Bft) O 0,00 h 0 W/m² 11,6 °C 16,7 °C 9,2 km/h (2 Bft)
26.08.2026 03:00 21,7 °C 15,2 °C 55 % 83 % 1017,3 hPa 1,4 l/m² 4,2 km/h (1 Bft) O-NO 0,00 h 0 W/m² 12,3 °C 15,2 °C 7,0 km/h (2 Bft)
26.08.2026 04:00 21,6 °C 14,3 °C 55 % 90 % 1017,5 hPa 0,8 l/m² 2,7 km/h (1 Bft) O-SO 0,00 h 0 W/m² 12,6 °C 14,3 °C 4,5 km/h (1 Bft)
26.08.2026 05:00 21,6 °C 14,1 °C 56 % 91 % 1017,7 hPa 0,0 l/m² 0,3 km/h (0 Bft) O-SO 0,00 h 0 W/m² 12,7 °C 14,1 °C 0,6 km/h (0 Bft)
26.08.2026 06:00 21,6 °C 14,1 °C 56 % 93 % 1018,0 hPa 0,4 l/m² 0,5 km/h (0 Bft) O-SO 0,00 h 10 W/m² 12,9 °C 14,1 °C 1,2 km/h (1 Bft)
26.08.2026 07:00 21,6 °C 14,2 °C 56 % 93 % 1018,2 hPa 0,0 l/m² 2,8 km/h (1 Bft) O-NO 0,00 h 23 W/m² 13,1 °C 14,2 °C 5,5 km/h (2 Bft)
26.08.2026 08:00 21,6 °C 14,5 °C 56 % 93 % 1018,5 hPa 0,0 l/m² 3,8 km/h (1 Bft) O-NO 0,27 h 49 W/m² 13,4 °C 14,5 °C 6,8 km/h (2 Bft)
26.08.2026 09:00 21,6 °C 14,7 °C 56 % 93 % 1018,9 hPa 0,0 l/m² 4,7 km/h (1 Bft) O-NO 0,37 h 53 W/m² 13,6 °C 14,7 °C 8,6 km/h (2 Bft)
26.08.2026 10:00 21,5 °C 15,3 °C 56 % 92 % 1019,4 hPa 0,0 l/m² 6,2 km/h (2 Bft) O-NO 1,02 h 99 W/m² 14,0 °C 15,0 °C 11,4 km/h (2 Bft)
26.08.2026 11:00 21,5 °C 15,9 °C 56 % 91 % 1019,5 hPa 0,0 l/m² 8,4 km/h (2 Bft) O-NO 1,00 h 142 W/m² 14,4 °C 14,8 °C 15,1 km/h (3 Bft)
26.08.2026 12:00 21,4 °C 16,5 °C 56 % 89 % 1019,5 hPa 0,0 l/m² 9,6 km/h (2 Bft) O-NO 1,00 h 106 W/m² 14,6 °C 15,0 °C 14,7 km/h (3 Bft)
26.08.2026 13:00 21,4 °C 16,7 °C 56 % 87 % 1019,6 hPa 0,0 l/m² 9,2 km/h (2 Bft) O 0,95 h 82 W/m² 14,6 °C 15,4 °C 13,7 km/h (3 Bft)
26.08.2026 14:00 21,4 °C 17,3 °C 56 % 86 % 1019,6 hPa 0,0 l/m² 10,2 km/h (2 Bft) O 1,00 h 215 W/m² 14,9 °C 15,7 °C 15,0 km/h (3 Bft)
26.08.2026 15:00 21,5 °C 18,3 °C 57 % 82 % 1019,6 hPa 0,0 l/m² 11,4 km/h (2 Bft) O 1,00 h 236 W/m² 15,2 °C 16,3 °C 16,6 km/h (3 Bft)
26.08.2026 16:00 21,6 °C 19,1 °C 57 % 79 % 1019,3 hPa 0,0 l/m² 11,7 km/h (2 Bft) O 1,00 h 237 W/m² 15,3 °C 17,2 °C 17,5 km/h (3 Bft)
26.08.2026 17:00 21,6 °C 19,6 °C 58 % 77 % 1019,1 hPa 0,0 l/m² 12,5 km/h (2 Bft) O 1,00 h 190 W/m² 15,4 °C 17,5 °C 17,6 km/h (3 Bft)
26.08.2026 18:00 21,7 °C 19,7 °C 59 % 76 % 1018,9 hPa 0,0 l/m² 10,7 km/h (2 Bft) O 0,50 h 62 W/m² 15,3 °C 18,2 °C 16,0 km/h (3 Bft)
26.08.2026 19:00 21,7 °C 19,1 °C 59 % 77 % 1018,8 hPa 0,0 l/m² 7,5 km/h (2 Bft) O-NO 0,00 h 22 W/m² 14,9 °C 18,3 °C 12,5 km/h (2 Bft)
26.08.2026 20:00 21,6 °C 17,4 °C 59 % 81 % 1018,8 hPa 0,0 l/m² 2,7 km/h (1 Bft) O 0,00 h 6 W/m² 14,0 °C 17,4 °C 4,7 km/h (1 Bft)
26.08.2026 21:00 21,6 °C 15,2 °C 59 % 88 % 1019,0 hPa 0,0 l/m² 0,1 km/h (0 Bft) SO 0,00 h 0 W/m² 13,2 °C 15,2 °C 0,2 km/h (0 Bft)
26.08.2026 22:00 21,6 °C 13,7 °C 59 % 92 % 1019,0 hPa 0,0 l/m² 0,2 km/h (0 Bft) SO 0,00 h 0 W/m² 12,4 °C 13,7 °C 0,4 km/h (0 Bft)
26.08.2026 23:00 21,5 °C 13,0 °C 59 % 93 % 1018,9 hPa 0,0 l/m² 0,9 km/h (0 Bft) SW 0,00 h 0 W/m² 11,9 °C 13,0 °C 1,6 km/h (1 Bft)
27.08.2026 00:00 21,4 °C 12,4 °C 58 % 93 % 1018,6 hPa 0,0 l/m² 0,0 km/h (0 Bft) SW 0,00 h 0 W/m² 11,4 °C 12,4 °C 0,0 km/h (0 Bft)
27.08.2026 01:00 21,4 °C 12,0 °C 58 % 94 % 1018,5 hPa 0,0 l/m² 0,4 km/h (0 Bft) SW 0,00 h 0 W/m² 11,1 °C 12,0 °C 0,7 km/h (0 Bft)
27.08.2026 02:00 21,4 °C 12,0 °C 58 % 94 % 1018,2 hPa 0,0 l/m² 0,0 km/h (0 Bft) SW 0,00 h 0 W/m² 11,1 °C 12,0 °C 0,0 km/h (0 Bft)
27.08.2026 03:00 21,3 °C 11,7 °C 57 % 94 % 1018,0 hPa 0,0 l/m² 0,6 km/h (0 Bft) SW 0,00 h 0 W/m² 10,8 °C 11,7 °C 0,9 km/h (0 Bft)
27.08.2026 04:00 21,3 °C 11,2 °C 57 % 95 % 1017,9 hPa 0,0 l/m² 0,0 km/h (0 Bft) SW 0,00 h 0 W/m² 10,4 °C 11,2 °C 0,0 km/h (0 Bft)
27.08.2026 05:00 21,3 °C 11,1 °C 58 % 95 % 1017,7 hPa 0,0 l/m² 0,2 km/h (0 Bft) SW 0,00 h 0 W/m² 10,3 °C 11,1 °C 0,4 km/h (0 Bft)
27.08.2026 06:00 21,3 °C 10,7 °C 58 % 95 % 1017,8 hPa 0,2 l/m² 0,4 km/h (0 Bft) SW 0,00 h 14 W/m² 9,9 °C 10,7 °C 0,6 km/h (0 Bft)
27.08.2026 07:00 21,3 °C 12,4 °C 58 % 96 % 1017,6 hPa 0,0 l/m² 1,4 km/h (1 Bft) W-SW 0,53 h 81 W/m² 11,7 °C 12,4 °C 2,7 km/h (1 Bft)
27.08.2026 08:00 21,3 °C 15,5 °C 58 % 91 % 1017,8 hPa 0,0 l/m² 7,3 km/h (2 Bft) O 1,00 h 261 W/m² 14,0 °C 14,8 °C 11,0 km/h (2 Bft)
27.08.2026 09:00 21,3 °C 18,2 °C 58 % 82 % 1017,6 hPa 0,0 l/m² 8,6 km/h (2 Bft) O 1,00 h 428 W/m² 15,0 °C 17,2 °C 12,7 km/h (3 Bft)
27.08.2026 10:00 21,3 °C 20,5 °C 57 % 76 % 1017,2 hPa 0,0 l/m² 11,1 km/h (2 Bft) O 1,00 h 569 W/m² 16,1 °C 18,9 °C 15,3 km/h (3 Bft)
27.08.2026 11:00 21,4 °C 23,4 °C 58 % 68 % 1016,8 hPa 0,0 l/m² 11,1 km/h (2 Bft) O 1,00 h 677 W/m² 17,3 °C 22,2 °C 15,7 km/h (3 Bft)
27.08.2026 12:00 21,4 °C 26,0 °C 58 % 61 % 1016,1 hPa 0,0 l/m² 13,8 km/h (3 Bft) O 0,98 h 694 W/m² 17,9 °C 24,8 °C 19,6 km/h (3 Bft)
27.08.2026 13:00 21,4 °C 27,4 °C 58 % 56 % 1015,6 hPa 0,0 l/m² 17,1 km/h (3 Bft) O 1,02 h 737 W/m² 17,9 °C 26,1 °C 23,1 km/h (4 Bft)
27.08.2026 14:00 21,4 °C 28,5 °C 58 % 53 % 1015,1 hPa 0,0 l/m² 18,2 km/h (3 Bft) O 1,00 h 717 W/m² 18,1 °C 27,3 °C 23,8 km/h (4 Bft)
27.08.2026 15:00 21,4 °C 29,0 °C 58 % 53 % 1014,6 hPa 0,0 l/m² 16,3 km/h (3 Bft) O 1,00 h 590 W/m² 18,5 °C 28,1 °C 22,0 km/h (4 Bft)
27.08.2026 16:00 21,5 °C 29,3 °C 58 % 53 % 1014,4 hPa 0,0 l/m² 17,8 km/h (3 Bft) O 1,00 h 471 W/m² 18,7 °C 28,3 °C 23,0 km/h (4 Bft)
27.08.2026 17:00 21,7 °C 28,5 °C 59 % 54 % 1014,0 hPa 0,0 l/m² 17,4 km/h (3 Bft) O 1,00 h 215 W/m² 18,3 °C 27,3 °C 24,2 km/h (4 Bft)
27.08.2026 18:00 22,0 °C 27,9 °C 60 % 55 % 1013,7 hPa 0,0 l/m² 16,5 km/h (3 Bft) O 1,00 h 95 W/m² 18,0 °C 26,8 °C 22,6 km/h (4 Bft)
27.08.2026 19:00 21,9 °C 26,5 °C 60 % 58 % 1013,4 hPa 0,0 l/m² 11,8 km/h (2 Bft) O 0,32 h 31 W/m² 17,4 °C 25,6 °C 15,9 km/h (3 Bft)
27.08.2026 20:00 21,9 °C 24,3 °C 61 % 66 % 1013,5 hPa 0,0 l/m² 7,0 km/h (2 Bft) O 0,00 h 0 W/m² 17,4 °C 24,0 °C 11,1 km/h (2 Bft)
27.08.2026 21:00 21,9 °C 23,3 °C 61 % 69 % 1013,2 hPa 0,0 l/m² 10,5 km/h (2 Bft) O 0,00 h 0 W/m² 17,1 °C 22,2 °C 15,8 km/h (3 Bft)
27.08.2026 22:00 21,9 °C 22,3 °C 60 % 69 % 1012,9 hPa 0,0 l/m² 12,4 km/h (2 Bft) O 0,00 h 0 W/m² 16,4 °C 20,7 °C 17,3 km/h (3 Bft)
27.08.2026 23:00 21,8 °C 21,5 °C 60 % 69 % 1012,5 hPa 0,0 l/m² 12,5 km/h (2 Bft) O 0,00 h 0 W/m² 15,6 °C 19,7 °C 17,6 km/h (3 Bft)
28.08.2026 00:00 21,7 °C 20,6 °C 60 % 71 % 1012,2 hPa 0,0 l/m² 9,0 km/h (2 Bft) O 0,00 h 0 W/m² 15,1 °C 19,6 °C 13,3 km/h (3 Bft)
28.08.2026 01:00 21,7 °C 19,7 °C 60 % 73 % 1011,5 hPa 0,0 l/m² 8,2 km/h (2 Bft) O 0,00 h 0 W/m² 14,8 °C 18,9 °C 12,6 km/h (2 Bft)
28.08.2026 02:00 21,7 °C 19,1 °C 60 % 76 % 1010,6 hPa 0,0 l/m² 5,7 km/h (2 Bft) O 0,00 h 0 W/m² 14,6 °C 18,7 °C 9,2 km/h (2 Bft)
28.08.2026 03:00 21,7 °C 18,4 °C 60 % 79 % 1010,4 hPa 0,0 l/m² 1,7 km/h (1 Bft) O 0,00 h 0 W/m² 14,7 °C 18,4 °C 3,3 km/h (1 Bft)
28.08.2026 04:00 21,7 °C 17,8 °C 59 % 83 % 1010,5 hPa 0,0 l/m² 0,9 km/h (0 Bft) O 0,00 h 0 W/m² 14,8 °C 17,7 °C 1,4 km/h (1 Bft)
28.08.2026 05:00 21,8 °C 17,7 °C 60 % 86 % 1011,1 hPa 0,0 l/m² 2,6 km/h (1 Bft) O 0,00 h 0 W/m² 15,3 °C 17,7 °C 4,3 km/h (1 Bft)
28.08.2026 06:00 21,8 °C 18,0 °C 60 % 86 % 1009,1 hPa 0,0 l/m² 7,1 km/h (2 Bft) O-NO 0,00 h 6 W/m² 15,6 °C 17,3 °C 10,4 km/h (2 Bft)
28.08.2026 07:00 21,8 °C 18,9 °C 61 % 85 % 1008,8 hPa 0,0 l/m² 5,9 km/h (2 Bft) O-SO 0,30 h 41 W/m² 16,3 °C 18,2 °C 9,6 km/h (2 Bft)
28.08.2026 08:00 21,8 °C 20,2 °C 60 % 82 % 1009,2 hPa 0,0 l/m² 2,5 km/h (1 Bft) S 0,97 h 110 W/m² 17,0 °C 20,2 °C 4,0 km/h (1 Bft)
28.08.2026 09:00 21,8 °C 21,9 °C 60 % 79 % 1008,7 hPa 0,0 l/m² 4,3 km/h (1 Bft) O 1,00 h 148 W/m² 18,2 °C 21,9 °C 6,8 km/h (2 Bft)
28.08.2026 10:00 21,8 °C 23,4 °C 60 % 75 % 1008,9 hPa 0,0 l/m² 5,7 km/h (2 Bft) O-SO 1,00 h 98 W/m² 18,8 °C 23,2 °C 8,6 km/h (2 Bft)
28.08.2026 11:00 21,8 °C 25,0 °C 60 % 71 % 1008,2 hPa 0,0 l/m² 6,1 km/h (2 Bft) O-SO 1,00 h 250 W/m² 19,5 °C 24,9 °C 9,0 km/h (2 Bft)
28.08.2026 12:00 21,8 °C 25,9 °C 59 % 69 % 1007,8 hPa 0,0 l/m² 6,9 km/h (2 Bft) SO 1,00 h 286 W/m² 19,7 °C 25,5 °C 10,2 km/h (2 Bft)
28.08.2026 13:00 21,8 °C 26,6 °C 59 % 68 % 1009,6 hPa 0,0 l/m² 15,8 km/h (3 Bft) S 1,00 h 210 W/m² 20,1 °C 25,3 °C 21,6 km/h (4 Bft)
28.08.2026 14:00 21,8 °C 23,2 °C 60 % 79 % 1009,5 hPa 0,2 l/m² 17,6 km/h (3 Bft) S-SW 1,00 h 85 W/m² 19,3 °C 20,9 °C 24,1 km/h (4 Bft)
28.08.2026 15:00 21,9 °C 22,5 °C 61 % 84 % 1009,1 hPa 0,0 l/m² 10,2 km/h (2 Bft) S-SO 1,00 h 253 W/m² 19,6 °C 21,4 °C 13,9 km/h (3 Bft)
28.08.2026 16:00 22,1 °C 24,0 °C 61 % 77 % 1008,8 hPa 0,0 l/m² 10,3 km/h (2 Bft) S-SW 1,00 h 230 W/m² 19,6 °C 23,0 °C 13,7 km/h (3 Bft)
28.08.2026 17:00 22,1 °C 24,0 °C 64 % 73 % 1008,2 hPa 0,0 l/m² 13,3 km/h (3 Bft) S 1,00 h 84 W/m² 18,8 °C 22,5 °C 18,5 km/h (3 Bft)
28.08.2026 18:00 22,1 °C 23,3 °C 65 % 77 % 1008,7 hPa 0,0 l/m² 8,2 km/h (2 Bft) S-SO 0,60 h 56 W/m² 19,0 °C 22,8 °C 11,9 km/h (2 Bft)
28.08.2026 19:00 22,1 °C 22,4 °C 66 % 81 % 1009,0 hPa 0,0 l/m² 9,5 km/h (2 Bft) S-SO 0,00 h 16 W/m² 18,9 °C 21,4 °C 12,8 km/h (3 Bft)
28.08.2026 20:00 22,1 °C 21,9 °C 67 % 81 % 1009,6 hPa 0,0 l/m² 6,6 km/h (2 Bft) S 0,00 h 0 W/m² 18,6 °C 21,5 °C 9,9 km/h (2 Bft)
28.08.2026 21:00 22,1 °C 20,7 °C 66 % 81 % 1010,6 hPa 0,0 l/m² 12,2 km/h (2 Bft) SW 0,00 h 0 W/m² 17,3 °C 19,0 °C 16,9 km/h (3 Bft)
28.08.2026 22:00 22,3 °C 19,0 °C 66 % 85 % 1010,7 hPa 0,0 l/m² 8,7 km/h (2 Bft) S-SW 0,00 h 0 W/m² 16,4 °C 17,7 °C 11,6 km/h (2 Bft)
28.08.2026 23:00 22,2 °C 18,4 °C 65 % 86 % 1010,6 hPa 0,0 l/m² 6,1 km/h (2 Bft) S-SW 0,00 h 0 W/m² 16,0 °C 17,5 °C 8,7 km/h (2 Bft)
29.08.2026 00:00 22,2 °C 18,0 °C 64 % 87 % 1011,2 hPa 0,0 l/m² 6,7 km/h (2 Bft) SW 0,00 h 0 W/m² 15,8 °C 17,7 °C 8,9 km/h (2 Bft)
29.08.2026 01:00 22,2 °C 18,0 °C 64 % 86 % 1011,4 hPa 0,0 l/m² 8,8 km/h (2 Bft) SW 0,00 h 0 W/m² 15,6 °C 17,0 °C 11,1 km/h (2 Bft)
29.08.2026 02:00 22,1 °C 17,9 °C 63 % 85 % 1011,6 hPa 0,2 l/m² 11,2 km/h (2 Bft) S-SW 0,00 h 0 W/m² 15,4 °C 16,0 °C 14,2 km/h (3 Bft)
29.08.2026 03:00 22,1 °C 17,5 °C 63 % 86 % 1011,4 hPa 0,0 l/m² 10,3 km/h (2 Bft) SW 0,00 h 0 W/m² 15,1 °C 15,8 °C 14,0 km/h (3 Bft)
29.08.2026 04:00 22,1 °C 17,0 °C 63 % 87 % 1011,7 hPa 0,0 l/m² 5,5 km/h (2 Bft) S-SW 0,00 h 0 W/m² 14,8 °C 16,5 °C 8,0 km/h (2 Bft)
29.08.2026 05:00 22,1 °C 16,9 °C 62 % 86 % 1012,1 hPa 0,0 l/m² 11,8 km/h (2 Bft) SW 0,00 h 0 W/m² 14,5 °C 14,6 °C 16,0 km/h (3 Bft)
29.08.2026 06:00 22,1 °C 16,3 °C 62 % 84 % 1012,3 hPa 0,0 l/m² 10,1 km/h (2 Bft) SW 0,00 h 19 W/m² 13,7 °C 14,6 °C 13,8 km/h (3 Bft)
29.08.2026 07:00 22,0 °C 16,3 °C 62 % 84 % 1012,4 hPa 0,0 l/m² 4,3 km/h (1 Bft) SW 0,48 h 66 W/m² 13,5 °C 16,1 °C 6,6 km/h (2 Bft)
29.08.2026 08:00 22,1 °C 18,1 °C 63 % 78 % 1012,9 hPa 0,0 l/m² 10,0 km/h (2 Bft) SW 1,00 h 286 W/m² 14,2 °C 16,7 °C 13,7 km/h (3 Bft)
29.08.2026 09:00 22,2 °C 20,0 °C 63 % 72 % 1013,3 hPa 0,0 l/m² 21,8 km/h (4 Bft) SW 1,00 h 470 W/m² 14,7 °C 16,0 °C 28,5 km/h (5 Bft)
29.08.2026 10:00 22,2 °C 20,7 °C 62 % 70 % 1013,6 hPa 0,0 l/m² 16,9 km/h (3 Bft) SW 1,00 h 461 W/m² 14,9 °C 17,7 °C 22,2 km/h (4 Bft)
29.08.2026 11:00 22,2 °C 22,8 °C 61 % 62 % 1013,7 hPa 0,0 l/m² 19,9 km/h (4 Bft) SW 1,00 h 600 W/m² 15,1 °C 19,8 °C 27,0 km/h (5 Bft)
29.08.2026 12:00 22,3 °C 24,1 °C 60 % 55 % 1013,4 hPa 0,0 l/m² 22,6 km/h (4 Bft) SW 0,98 h 491 W/m² 14,4 °C 21,2 °C 30,8 km/h (5 Bft)
29.08.2026 13:00 22,3 °C 25,0 °C 61 % 51 % 1013,1 hPa 0,0 l/m² 22,5 km/h (4 Bft) SW 1,00 h 530 W/m² 14,2 °C 22,4 °C 30,6 km/h (5 Bft)
29.08.2026 14:00 22,3 °C 26,2 °C 60 % 47 % 1012,6 hPa 0,0 l/m² 23,6 km/h (4 Bft) SW 1,02 h 786 W/m² 14,0 °C 23,9 °C 32,0 km/h (5 Bft)
29.08.2026 15:00 22,4 °C 26,3 °C 60 % 46 % 1012,3 hPa 0,0 l/m² 20,7 km/h (4 Bft) S-SW 1,00 h 470 W/m² 13,8 °C 24,3 °C 27,3 km/h (5 Bft)
29.08.2026 16:00 22,4 °C 25,9 °C 60 % 47 % 1012,1 hPa 0,0 l/m² 20,0 km/h (4 Bft) S-SW 1,00 h 281 W/m² 13,7 °C 23,8 °C 26,1 km/h (4 Bft)
29.08.2026 17:00 22,3 °C 25,7 °C 60 % 47 % 1011,9 hPa 0,0 l/m² 18,2 km/h (3 Bft) S-SW 1,00 h 183 W/m² 13,6 °C 23,8 °C 24,2 km/h (4 Bft)
29.08.2026 18:00 22,3 °C 25,3 °C 60 % 49 % 1011,8 hPa 0,0 l/m² 16,4 km/h (3 Bft) SW 0,82 h 81 W/m² 13,7 °C 23,5 °C 22,0 km/h (4 Bft)
29.08.2026 19:00 22,3 °C 24,0 °C 60 % 53 % 1011,6 hPa 0,0 l/m² 9,5 km/h (2 Bft) SW 0,00 h 25 W/m² 13,9 °C 23,2 °C 12,5 km/h (2 Bft)
29.08.2026 20:00 22,3 °C 20,6 °C 60 % 65 % 1011,7 hPa 0,0 l/m² 1,3 km/h (1 Bft) S-SW 0,00 h 0 W/m² 13,6 °C 20,6 °C 1,8 km/h (1 Bft)
29.08.2026 21:00 22,3 °C 19,0 °C 61 % 72 % 1011,9 hPa 0,0 l/m² 0,0 km/h (0 Bft) S-SW 0,00 h 0 W/m² 13,8 °C 19,0 °C 0,0 km/h (0 Bft)
29.08.2026 22:00 22,3 °C 18,8 °C 61 % 74 % 1011,9 hPa 0,0 l/m² 1,0 km/h (0 Bft) S-SW 0,00 h 0 W/m² 14,1 °C 18,8 °C 1,5 km/h (1 Bft)
29.08.2026 23:00 22,3 °C 19,1 °C 61 % 77 % 1011,8 hPa 0,0 l/m² 1,3 km/h (1 Bft) SW 0,00 h 0 W/m² 15,0 °C 19,1 °C 2,1 km/h (1 Bft)
30.08.2026 00:00 22,3 °C 18,5 °C 61 % 81 % 1011,5 hPa 0,0 l/m² 0,7 km/h (0 Bft) O 0,00 h 0 W/m² 15,1 °C 18,5 °C 1,9 km/h (1 Bft)
30.08.2026 01:00 22,3 °C 20,2 °C 61 % 71 % 1011,3 hPa 0,0 l/m² 4,4 km/h (1 Bft) S-SO 0,00 h 0 W/m² 14,8 °C 20,0 °C 7,7 km/h (2 Bft)
30.08.2026 02:00 22,3 °C 20,4 °C 61 % 69 % 1010,8 hPa 0,0 l/m² 7,3 km/h (2 Bft) S-SO 0,00 h 0 W/m² 14,5 °C 19,8 °C 11,3 km/h (2 Bft)
30.08.2026 03:00 22,3 °C 20,7 °C 61 % 68 % 1010,7 hPa 0,0 l/m² 13,8 km/h (3 Bft) S 0,00 h 0 W/m² 14,5 °C 18,4 °C 19,5 km/h (3 Bft)
30.08.2026 04:00 22,3 °C 20,8 °C 60 % 67 % 1010,6 hPa 0,0 l/m² 14,3 km/h (3 Bft) S 0,00 h 0 W/m² 14,4 °C 18,4 °C 20,2 km/h (4 Bft)
30.08.2026 05:00 22,2 °C 20,4 °C 60 % 69 % 1010,5 hPa 0,0 l/m² 13,8 km/h (3 Bft) S-SW 0,00 h 0 W/m² 14,6 °C 18,1 °C 18,8 km/h (3 Bft)
30.08.2026 06:00 22,2 °C 19,4 °C 60 % 73 % 1010,5 hPa 0,0 l/m² 10,0 km/h (2 Bft) S 0,00 h 12 W/m² 14,4 °C 18,0 °C 13,7 km/h (3 Bft)
30.08.2026 07:00 22,2 °C 20,3 °C 60 % 71 % 1010,5 hPa 0,0 l/m² 19,1 km/h (3 Bft) S-SW 0,57 h 81 W/m² 14,9 °C 16,9 °C 24,3 km/h (4 Bft)
30.08.2026 08:00 22,3 °C 21,9 °C 61 % 68 % 1010,4 hPa 0,0 l/m² 23,6 km/h (4 Bft) S-SW 1,00 h 280 W/m² 15,7 °C 18,1 °C 31,4 km/h (5 Bft)
30.08.2026 09:00 22,6 °C 23,0 °C 62 % 67 % 1011,0 hPa 0,0 l/m² 23,8 km/h (4 Bft) SW 1,00 h 377 W/m² 16,5 °C 19,7 °C 31,8 km/h (5 Bft)
30.08.2026 10:00 22,5 °C 24,0 °C 61 % 63 % 1011,3 hPa 0,0 l/m² 24,1 km/h (4 Bft) SW 1,00 h 342 W/m² 16,5 °C 21,0 °C 31,7 km/h (5 Bft)
30.08.2026 11:00 22,4 °C 20,0 °C 61 % 80 % 1011,9 hPa 0,0 l/m² 19,5 km/h (3 Bft) W-SW 0,93 h 164 W/m² 16,5 °C 16,6 °C 25,7 km/h (4 Bft)
30.08.2026 12:00 22,4 °C 22,9 °C 62 % 68 % 1011,9 hPa 0,0 l/m² 23,1 km/h (4 Bft) SW 0,98 h 599 W/m² 16,7 °C 19,6 °C 30,9 km/h (5 Bft)
30.08.2026 13:00 22,6 °C 25,0 °C 62 % 60 % 1011,7 hPa 0,0 l/m² 25,1 km/h (4 Bft) SW 1,00 h 719 W/m² 16,8 °C 22,2 °C 33,5 km/h (5 Bft)
30.08.2026 14:00 22,7 °C 26,4 °C 62 % 53 % 1011,6 hPa 0,0 l/m² 26,6 km/h (4 Bft) SW 1,02 h 754 W/m² 16,1 °C 24,0 °C 35,2 km/h (5 Bft)
30.08.2026 15:00 22,8 °C 27,3 °C 60 % 48 % 1011,7 hPa 0,0 l/m² 27,1 km/h (5 Bft) SW 0,98 h 683 W/m² 15,3 °C 25,2 °C 36,9 km/h (5 Bft)
30.08.2026 16:00 22,9 °C 27,0 °C 57 % 45 % 1011,8 hPa 0,0 l/m² 27,1 km/h (5 Bft) SW 1,02 h 499 W/m² 13,9 °C 24,7 °C 36,2 km/h (5 Bft)
30.08.2026 17:00 23,0 °C 26,1 °C 51 % 45 % 1011,9 hPa 0,0 l/m² 23,0 km/h (4 Bft) W-SW 1,00 h 186 W/m² 13,3 °C 23,8 °C 31,0 km/h (5 Bft)
30.08.2026 18:00 22,9 °C 24,7 °C 53 % 49 % 1012,0 hPa 0,0 l/m² 13,4 km/h (3 Bft) W-SW 1,00 h 89 W/m² 13,3 °C 23,3 °C 18,8 km/h (3 Bft)
30.08.2026 19:00 23,0 °C 23,1 °C 57 % 55 % 1012,3 hPa 0,0 l/m² 5,0 km/h (1 Bft) W 0,10 h 27 W/m² 13,6 °C 22,9 °C 8,0 km/h (2 Bft)
30.08.2026 20:00 23,1 °C 19,6 °C 58 % 69 % 1012,8 hPa 0,0 l/m² 0,0 km/h (0 Bft) N 0,00 h 0 W/m² 13,8 °C 19,6 °C 0,1 km/h (0 Bft)
30.08.2026 21:00 23,2 °C 17,4 °C 59 % 78 % 1013,1 hPa 0,0 l/m² 0,0 km/h (0 Bft) N 0,00 h 0 W/m² 13,6 °C 17,4 °C 0,0 km/h (0 Bft)
30.08.2026 22:00 23,0 °C 16,4 °C 59 % 83 % 1013,1 hPa 0,0 l/m² 0,3 km/h (0 Bft) N 0,00 h 0 W/m² 13,6 °C 16,4 °C 0,5 km/h (0 Bft)
30.08.2026 23:00 22,8 °C 16,0 °C 59 % 83 % 1013,1 hPa 0,0 l/m² 0,1 km/h (0 Bft) O-NO 0,00 h 0 W/m² 13,1 °C 16,0 °C 0,4 km/h (0 Bft)
Min-Datum _ 27.08.26 24.08.26 30.08.26 25.08.26 28.08.26 - 30.08.26 - - - 24.08.26 24.08.26 30.08.26
_ Min-Zeit 08:03 05:39 17:28 15:26 12:07 - 23:01 - - - 05:39 05:39 23:04
Minimum _ 21,2 °C 6,7 °C 50 % 42 % 1007,3 hPa - 0,0 km/h (0 Bft) - - - 5,6 °C 6,7 °C 0,0 km/h (0 Bft)
Max-Datum _ 30.08.26 27.08.26 28.08.26 27.08.26 24.08.26 26.08.26 30.08.26 - 27.08.26 30.08.26 28.08.26 27.08.26 28.08.26
_ Max-Zeit 21:00 16:11 20:29 07:01 10:50 03:15 15:19 - 12:09 13:31 13:35 16:44 14:07
Maximum _ 23,2 °C 29,5 °C 68 % 96 % 1023,6 hPa 1,4 l/m² 38,1 km/h
SW (6 Bft)
- 0,15 h 942 W/m² 20,5 °C 28,7 °C 56,3 km/h
S (7 Bft)
Durchschnitt _ 21,8 °C 18,9 °C 58 % 74 % 1015,2 hPa #3,2 l/m² 8,5 km/h (2 Bft) O #77:59 h 168 W/m² 13,8 °C 18,0 °C 12,2 km/h (2 Bft)
© 2009 Mathias Hoßbach